Georgtown Station, New York
Current Conditions -  °F | °C
As of 7:53 AM on Monday 22 Dec 2014 (Local Time) from KRME Reporting Station
Overcast Overcast  
Wind Chill: 24°   Ceiling: 2600
Heat Index: 30°   Visibility: 10mi
Dew Point: 24°   Wind: 6mph
Humidity: 79%   Direction: 120°ESE
Pressure: 30.32"   Gusts: NA
Location:  42.8314°N, 75.6471°W
Report Text: KRME 221253Z 12005KT 10SM OVC026 M01/M04 A3032 RMK AO2 SLP272 T10111044
Loading
Personal Weather Stations






























Interactive Weather Map New forecast layout! Learn more

10-Day Weather Forecast

Advertisements
Track Severe Weather on mobile